createdAt,value
2023-01-12T00:02:22.410Z,6.00
2023-01-12T00:07:28.856Z,5.86
2023-01-12T00:12:30.595Z,5.79
2023-01-12T00:17:37.413Z,5.84
2023-01-12T00:22:41.509Z,5.87
2023-01-12T00:27:49.033Z,5.82
2023-01-12T00:32:55.568Z,5.88
2023-01-12T00:37:57.296Z,5.77
2023-01-12T00:43:20.137Z,5.66
2023-01-12T00:48:24.314Z,5.53
2023-01-12T00:53:26.048Z,5.47
2023-01-12T00:58:28.857Z,5.43
2023-01-12T01:03:30.530Z,5.42
2023-01-12T01:08:39.351Z,5.58
2023-01-12T01:13:43.708Z,5.70
2023-01-12T01:18:45.918Z,5.83
2023-01-12T01:23:47.779Z,5.91
2023-01-12T01:28:53.115Z,5.94
2023-01-12T01:33:56.870Z,5.84
2023-01-12T01:38:59.987Z,5.67
2023-01-12T01:44:27.294Z,5.65
2023-01-12T01:49:49.457Z,5.72
2023-01-12T01:55:09.196Z,5.80
2023-01-12T02:00:12.647Z,5.85
2023-01-12T02:05:24.049Z,5.96
2023-01-12T02:10:32.238Z,5.98
2023-01-12T02:16:19.284Z,6.07
2023-01-12T02:21:41.862Z,6.04
2023-01-12T02:26:50.711Z,5.89
2023-01-12T02:32:21.400Z,5.84
2023-01-12T02:37:42.021Z,5.88
2023-01-12T02:43:05.249Z,6.03
2023-01-12T02:48:15.442Z,6.18
2023-01-12T02:53:43.153Z,6.22
2023-01-12T02:58:51.092Z,6.21
2023-01-12T03:04:00.872Z,6.34
2023-01-12T03:09:05.542Z,6.41
2023-01-12T03:14:11.107Z,6.42
2023-01-12T03:19:28.744Z,6.44
2023-01-12T03:24:48.579Z,6.43
2023-01-12T03:30:04.377Z,6.46
2023-01-12T03:35:08.736Z,6.43
2023-01-12T03:40:37.757Z,6.47
2023-01-12T03:45:48.157Z,6.56
2023-01-12T03:50:56.892Z,6.63
2023-01-12T03:56:04.912Z,6.67
2023-01-12T04:01:06.770Z,6.69
2023-01-12T04:06:11.307Z,6.68
2023-01-12T04:11:34.349Z,6.65
2023-01-12T04:16:37.731Z,6.65
2023-01-12T04:21:58.522Z,6.66
2023-01-12T04:27:00.522Z,6.65
2023-01-12T04:32:05.950Z,6.66
2023-01-12T04:37:07.617Z,6.64
2023-01-12T04:42:31.376Z,6.66
2023-01-12T04:47:33.929Z,6.70
2023-01-12T04:52:36.098Z,6.73
2023-01-12T04:57:40.336Z,6.76
2023-01-12T05:02:47.962Z,6.79
2023-01-12T05:08:08.316Z,6.86
2023-01-12T05:13:17.344Z,6.90
2023-01-12T05:18:24.828Z,6.95
2023-01-12T05:23:26.669Z,6.96
2023-01-12T05:28:31.237Z,7.00
2023-01-12T05:33:35.540Z,7.03
2023-01-12T05:38:38.161Z,7.06
2023-01-12T05:43:53.008Z,7.05
2023-01-12T05:48:56.324Z,7.06
2023-01-12T05:54:03.183Z,7.06
2023-01-12T05:59:07.394Z,7.06
2023-01-12T06:04:12.921Z,7.06
2023-01-12T06:09:17.493Z,7.06
2023-01-12T06:14:19.524Z,7.09
2023-01-12T06:19:21.263Z,7.10
2023-01-12T06:24:24.350Z,7.09
2023-01-12T06:29:26.171Z,7.06
2023-01-12T06:34:27.974Z,7.04
2023-01-12T06:39:30.887Z,7.03
2023-01-12T06:44:32.662Z,7.01
2023-01-12T06:49:36.721Z,6.99
2023-01-12T06:54:38.411Z,7.20
2023-01-12T06:59:42.642Z,7.10
2023-01-12T07:04:49.510Z,7.06
2023-01-12T07:09:51.263Z,7.07
2023-01-12T07:14:53.089Z,7.02
2023-01-12T07:20:00.099Z,7.04
2023-01-12T07:25:02.209Z,7.06
2023-01-12T07:30:09.024Z,7.09
2023-01-12T07:35:10.771Z,7.15
2023-01-12T07:40:15.014Z,7.16
2023-01-12T07:45:16.856Z,7.23
2023-01-12T07:50:25.270Z,7.27
2023-01-12T07:55:27.108Z,7.31
2023-01-12T08:00:30.099Z,7.33
2023-01-12T08:05:31.948Z,7.39
2023-01-12T08:10:39.457Z,7.41
2023-01-12T08:15:49.659Z,7.48
2023-01-12T08:20:52.039Z,7.57
2023-01-12T08:26:02.386Z,7.67
2023-01-12T08:31:09.897Z,7.72
2023-01-12T08:41:37.737Z,8.03
2023-01-12T08:46:40.527Z,8.04
2023-01-12T08:51:44.916Z,8.06
2023-01-12T08:56:51.289Z,8.15
2023-01-12T09:01:53.262Z,8.19
2023-01-12T09:06:55.556Z,8.22
2023-01-12T09:12:24.359Z,8.27
2023-01-12T09:17:26.815Z,8.35
2023-01-12T09:22:30.158Z,8.43
2023-01-12T09:27:31.952Z,8.50
2023-01-12T09:32:36.860Z,8.57
2023-01-12T09:37:43.573Z,8.63
2023-01-12T09:43:08.620Z,8.70
2023-01-12T09:48:19.357Z,8.73
2023-01-12T09:53:28.068Z,8.79
2023-01-12T09:58:45.107Z,8.88
2023-01-12T10:03:48.220Z,8.96
2023-01-12T10:08:56.028Z,9.13
2023-01-12T10:14:05.471Z,9.23
2023-01-12T10:19:19.467Z,9.33
2023-01-12T10:24:25.690Z,9.37
2023-01-12T10:29:32.036Z,9.38
2023-01-12T10:34:55.507Z,9.47
2023-01-12T10:40:01.891Z,9.67
2023-01-12T10:45:17.450Z,9.96
2023-01-12T10:50:28.147Z,10.14
2023-01-12T10:55:37.098Z,10.18
2023-01-12T11:00:39.423Z,10.28
2023-01-12T11:05:41.188Z,10.48
2023-01-12T11:10:45.594Z,10.54
2023-01-12T11:16:07.629Z,10.57
2023-01-12T11:21:13.925Z,10.59
2023-01-12T11:26:19.697Z,10.46
2023-01-12T11:31:25.663Z,10.29
2023-01-12T11:36:44.024Z,10.05
2023-01-12T11:42:05.844Z,9.74
2023-01-12T11:47:16.065Z,9.67
2023-01-12T11:52:17.862Z,9.66
2023-01-12T11:57:25.791Z,9.63
2023-01-12T12:02:39.407Z,9.64
2023-01-12T12:07:58.034Z,9.54
2023-01-12T12:13:18.037Z,9.57
2023-01-12T12:18:33.979Z,9.64
2023-01-12T12:23:41.742Z,9.67
2023-01-12T12:28:52.699Z,9.66
2023-01-12T12:34:25.478Z,9.74
2023-01-12T12:39:27.412Z,9.71
2023-01-12T12:44:57.855Z,9.81
2023-01-12T12:50:03.507Z,9.82
2023-01-12T12:55:11.661Z,9.88
2023-01-12T13:00:40.627Z,10.04
2023-01-12T13:05:45.350Z,10.24
2023-01-12T13:10:57.841Z,10.09
2023-01-12T13:16:31.852Z,10.12
2023-01-12T13:21:57.759Z,10.19
2023-01-12T13:27:01.226Z,10.16
2023-01-12T13:32:32.607Z,10.13
2023-01-12T13:37:57.729Z,10.17
2023-01-12T13:43:19.625Z,10.14
2023-01-12T13:48:24.747Z,10.15
2023-01-12T13:53:28.988Z,10.18
2023-01-12T13:58:42.163Z,10.18
2023-01-12T14:03:56.044Z,10.17
2023-01-12T14:09:25.139Z,10.11
2023-01-12T14:14:59.278Z,10.08
2023-01-12T14:20:04.183Z,10.04
2023-01-12T14:25:21.500Z,9.92
2023-01-12T14:30:27.626Z,9.88
2023-01-12T14:35:32.148Z,9.89
2023-01-12T14:40:37.186Z,9.90
2023-01-12T14:46:28.711Z,9.94
2023-01-12T14:51:39.811Z,9.97
2023-01-12T14:57:10.446Z,10.05
2023-01-12T15:02:14.764Z,10.04
2023-01-12T15:07:18.289Z,9.97
2023-01-12T15:12:29.152Z,9.92
2023-01-12T15:17:49.498Z,9.89
2023-01-12T15:23:10.852Z,9.87
2023-01-12T15:28:12.587Z,9.85
2023-01-12T15:33:15.466Z,9.87
2023-01-12T15:38:20.728Z,9.88
2023-01-12T15:43:23.081Z,9.85
2023-01-12T15:48:27.219Z,9.87
2023-01-12T15:53:36.554Z,9.88
2023-01-12T15:58:38.372Z,9.88
2023-01-12T16:04:09.583Z,9.83
2023-01-12T16:09:04.408Z,9.76
2023-01-12T16:14:08.924Z,9.70
2023-01-12T16:19:21.518Z,9.65
2023-01-12T16:24:26.932Z,9.63
2023-01-12T16:29:29.528Z,9.61
2023-01-12T16:34:34.524Z,9.58
2023-01-12T16:39:37.286Z,9.57
2023-01-12T16:44:41.650Z,9.56
2023-01-12T16:49:51.941Z,9.53
2023-01-12T16:54:56.234Z,9.53
2023-01-12T16:59:58.115Z,9.53
2023-01-12T17:05:04.826Z,9.52
2023-01-12T17:10:07.420Z,9.51
2023-01-12T17:15:14.225Z,9.51
2023-01-12T17:20:20.049Z,9.52
2023-01-12T17:25:22.749Z,9.50
2023-01-12T17:30:25.094Z,9.51
2023-01-12T17:35:27.738Z,9.52
2023-01-12T17:40:31.789Z,9.51
2023-01-12T17:45:33.671Z,9.55
2023-01-12T17:50:35.464Z,9.55
2023-01-12T17:55:48.217Z,9.58
2023-01-12T18:00:52.234Z,9.58
2023-01-12T18:06:06.783Z,9.59
2023-01-12T18:11:14.238Z,9.59
2023-01-12T18:16:18.717Z,9.60
2023-01-12T18:21:27.342Z,9.57
2023-01-12T18:26:35.743Z,9.59
2023-01-12T18:31:37.755Z,9.60
2023-01-12T18:36:44.385Z,9.60
2023-01-12T18:42:06.063Z,9.57
2023-01-12T18:47:27.440Z,9.57
2023-01-12T18:52:50.051Z,9.56
2023-01-12T18:57:59.623Z,9.55
2023-01-12T19:03:05.336Z,9.53
2023-01-12T19:08:33.376Z,9.51
2023-01-12T19:13:55.250Z,9.49
2023-01-12T19:18:57.978Z,9.48
2023-01-12T19:24:18.538Z,9.51
2023-01-12T19:29:22.583Z,9.51
2023-01-12T19:34:25.335Z,9.53
2023-01-12T19:39:49.490Z,9.56
2023-01-12T19:44:54.241Z,9.57
2023-01-12T19:49:56.470Z,9.57
2023-01-12T19:55:07.930Z,9.58
2023-01-12T20:00:15.454Z,9.60
2023-01-12T20:05:22.782Z,9.62
2023-01-12T20:10:25.113Z,9.65
2023-01-12T20:15:29.822Z,9.66
2023-01-12T20:20:31.810Z,9.64
2023-01-12T20:25:33.887Z,9.61
2023-01-12T20:30:38.313Z,9.58
2023-01-12T20:35:46.422Z,9.55
2023-01-12T20:40:48.277Z,9.55
2023-01-12T20:45:52.648Z,9.55
2023-01-12T20:50:58.854Z,9.55
2023-01-12T20:56:02.845Z,9.56
2023-01-12T21:01:12.563Z,9.55
2023-01-12T21:06:18.548Z,9.59
2023-01-12T21:11:21.556Z,9.63
2023-01-12T21:16:31.295Z,9.66
2023-01-12T21:21:35.654Z,9.66
2023-01-12T21:26:37.453Z,9.69
2023-01-12T21:31:45.145Z,9.72
2023-01-12T21:36:49.129Z,9.65
2023-01-12T21:42:09.213Z,9.65
2023-01-12T21:47:11.183Z,9.62
2023-01-12T21:52:15.233Z,9.72
2023-01-12T21:57:19.527Z,9.72
2023-01-12T22:02:24.231Z,9.75
2023-01-12T22:07:27.114Z,9.71
2023-01-12T22:12:35.776Z,9.72
2023-01-12T22:17:42.927Z,9.78
2023-01-12T22:22:45.039Z,9.75
2023-01-12T22:27:47.043Z,9.70
2023-01-12T22:32:54.407Z,9.72
2023-01-12T22:37:56.140Z,9.68
2023-01-12T22:43:16.445Z,9.65
2023-01-12T22:48:20.432Z,9.71
2023-01-12T22:53:24.890Z,9.74
2023-01-12T22:58:28.966Z,9.74
2023-01-12T23:03:33.131Z,9.65
2023-01-12T23:08:40.762Z,9.57
2023-01-12T23:13:45.390Z,9.36
2023-01-12T23:18:51.996Z,9.24
2023-01-12T23:24:01.412Z,9.02
2023-01-12T23:29:05.711Z,8.78
2023-01-12T23:34:09.705Z,8.62
2023-01-12T23:39:12.313Z,8.49
2023-01-12T23:44:16.380Z,8.30
2023-01-12T23:49:18.743Z,8.15
2023-01-12T23:54:20.635Z,8.05
2023-01-12T23:59:22.413Z,7.98
